CYGV

Havre St Pierre Airport

ICAO Code CYGV
IATA Code YGV
Name Havre St Pierre Airport
Location Havre St-Pierre, Quebec, CA
Elevation 125 Feet / 38.1 Meters
Latitude 50.28194444
Longitude -63.61111111
METAR CYGV 131400Z AUTO 31011G18KT 260V330 9SM BKN055 09/M04 A2988 RMK SLP123
Extra information Display Charts and CFS
Display NOTAMS
Runway Length Width Surface Elevation
08 4498 ft 100 ft ASP 110 ft
26 4498 ft 100 ft ASP 125 ft